createdAt,value
2023-01-17T00:00:17.028Z,3.200
2023-01-17T00:01:16.241Z,3.5
2023-01-17T00:02:16.636Z,3.799
2023-01-17T00:03:16.800Z,3.299
2023-01-17T00:04:16.729Z,2.700
2023-01-17T00:05:16.677Z,3.099
2023-01-17T00:07:16.760Z,3.700
2023-01-17T00:08:17.187Z,4.400
2023-01-17T00:09:16.269Z,2.900
2023-01-17T00:10:17.075Z,2.700
2023-01-17T00:11:16.287Z,3.5
2023-01-17T00:12:16.256Z,2.700
2023-01-17T00:13:16.764Z,3.799
2023-01-17T00:14:16.444Z,3.400
2023-01-17T00:15:16.293Z,4.199
2023-01-17T00:16:16.125Z,3.200
2023-01-17T00:17:16.453Z,2.799
2023-01-17T00:19:16.446Z,2.400
2023-01-17T00:20:19.325Z,2
2023-01-17T00:21:16.667Z,1.600
2023-01-17T00:22:16.616Z,3.5
2023-01-17T00:23:16.605Z,1.700
2023-01-17T00:24:16.444Z,2.299
2023-01-17T00:25:16.576Z,2.700
2023-01-17T00:26:16.496Z,3.5
2023-01-17T00:27:16.457Z,2.900
2023-01-17T00:28:16.507Z,2.599
2023-01-17T00:29:16.475Z,2.400
2023-01-17T00:30:16.474Z,2.599
2023-01-17T00:31:16.646Z,2.700
2023-01-17T00:32:16.425Z,3.200
2023-01-17T00:33:16.361Z,2.299
2023-01-17T00:34:16.169Z,2.400
2023-01-17T00:35:16.555Z,2.900
2023-01-17T00:36:16.610Z,1.899
2023-01-17T00:37:16.890Z,2.5
2023-01-17T00:38:16.617Z,3
2023-01-17T00:39:16.580Z,1.799
2023-01-17T00:40:16.720Z,1.600
2023-01-17T00:41:16.821Z,3
2023-01-17T00:42:16.675Z,1.899
2023-01-17T00:43:16.403Z,2.400
2023-01-17T00:44:16.301Z,2
2023-01-17T00:45:16.540Z,1.700
2023-01-17T00:48:16.127Z,2.099
2023-01-17T00:49:21.663Z,2
2023-01-17T00:50:16.403Z,3.099
2023-01-17T00:51:16.466Z,2.299
2023-01-17T00:52:16.586Z,2.400
2023-01-17T00:53:16.306Z,2.200
2023-01-17T00:54:18.840Z,2.299
2023-01-17T00:55:16.561Z,1.399
2023-01-17T00:56:16.265Z,2.700
2023-01-17T00:57:16.431Z,2.900
2023-01-17T00:58:15.035Z,1.700
2023-01-17T00:59:16.487Z,2.400
2023-01-17T01:00:17.363Z,1.799
2023-01-17T01:01:18.631Z,2.400
2023-01-17T01:02:16.715Z,1.899
2023-01-17T01:03:16.526Z,1.200
2023-01-17T01:04:16.574Z,1.799
2023-01-17T01:05:16.708Z,1.899
2023-01-17T01:06:16.604Z,2
2023-01-17T01:07:16.487Z,2.5
2023-01-17T01:08:16.352Z,3
2023-01-17T01:09:16.320Z,2.099
2023-01-17T01:10:16.718Z,1.799
2023-01-17T01:11:16.570Z,2.099
2023-01-17T01:12:16.494Z,1.899
2023-01-17T01:13:16.612Z,1.700
2023-01-17T01:14:16.497Z,1.299
2023-01-17T01:15:16.692Z,2.299
2023-01-17T01:16:16.550Z,2.799
2023-01-17T01:17:16.283Z,1.799
2023-01-17T01:18:16.175Z,2.400
2023-01-17T01:19:16.380Z,2.700
2023-01-17T01:20:16.374Z,2.900
2023-01-17T01:21:16.317Z,3.299
2023-01-17T01:22:16.450Z,2.799
2023-01-17T01:23:16.276Z,3
2023-01-17T01:24:16.252Z,4.199
2023-01-17T01:25:16.860Z,3.900
2023-01-17T01:26:16.725Z,3.400
2023-01-17T01:27:16.426Z,4.300
2023-01-17T01:28:16.190Z,4.400
2023-01-17T01:29:16.151Z,4.199
2023-01-17T01:30:16.831Z,3.099
2023-01-17T01:31:16.327Z,3.799
2023-01-17T01:32:16.109Z,5.300
2023-01-17T01:33:16.677Z,3.799
2023-01-17T01:34:16.134Z,3.599
2023-01-17T01:35:39.122Z,5.300
2023-01-17T01:36:15.972Z,4.800
2023-01-17T01:37:16.594Z,3.900
2023-01-17T01:38:16.342Z,4.5
2023-01-17T01:39:16.274Z,4.800
2023-01-17T01:40:16.139Z,4.900
2023-01-17T01:41:16.267Z,5.400
2023-01-17T01:42:16.329Z,5.699
2023-01-17T01:43:16.175Z,4.099
2023-01-17T01:44:16.705Z,4.400
2023-01-17T01:45:16.817Z,4.699
2023-01-17T01:46:16.693Z,5.5
2023-01-17T01:47:16.420Z,5.099
2023-01-17T01:48:16.431Z,5.5
2023-01-17T01:50:16.690Z,3.5
2023-01-17T01:51:16.787Z,4.699
2023-01-17T01:52:16.593Z,4.400
2023-01-17T01:53:16.389Z,4.599
2023-01-17T01:54:16.349Z,7.5
2023-01-17T01:55:16.521Z,4.199
2023-01-17T01:56:16.447Z,4.099
2023-01-17T01:57:16.294Z,4.400
2023-01-17T01:58:16.726Z,4.800
2023-01-17T01:59:16.464Z,5.699
2023-01-17T02:00:17.159Z,4.300
2023-01-17T02:01:16.674Z,6.099
2023-01-17T02:02:16.811Z,3.900
2023-01-17T02:03:16.681Z,4.900
2023-01-17T02:04:16.748Z,4.199
2023-01-17T02:05:16.927Z,3.099
2023-01-17T02:06:16.793Z,3.700
2023-01-17T02:07:16.487Z,4.900
2023-01-17T02:08:16.284Z,3.799
2023-01-17T02:09:16.412Z,3.900
2023-01-17T02:10:16.583Z,3.799
2023-01-17T02:11:16.628Z,4.099
2023-01-17T02:12:16.420Z,4.300
2023-01-17T02:13:16.350Z,4.599
2023-01-17T02:14:16.241Z,4.699
2023-01-17T02:15:16.630Z,4.300
2023-01-17T02:17:16.363Z,4.699
2023-01-17T02:18:16.462Z,4.300
2023-01-17T02:19:16.727Z,3.099
2023-01-17T02:20:16.710Z,4.099
2023-01-17T02:21:16.940Z,5.900
2023-01-17T02:22:16.433Z,3.799
2023-01-17T02:23:16.347Z,4.599
2023-01-17T02:24:16.279Z,3.200
2023-01-17T02:25:16.577Z,4
2023-01-17T02:26:16.431Z,3.400
2023-01-17T02:27:16.705Z,4.400
2023-01-17T02:28:16.671Z,3.200
2023-01-17T02:29:16.742Z,4.300
2023-01-17T02:30:16.642Z,3.5
2023-01-17T02:31:17.453Z,5.199
2023-01-17T02:32:16.998Z,3.799
2023-01-17T02:33:16.722Z,4.5
2023-01-17T02:34:16.527Z,4
2023-01-17T02:35:16.290Z,4.199
2023-01-17T02:36:16.332Z,3.599
2023-01-17T02:37:16.509Z,5
2023-01-17T02:38:16.484Z,3.200
2023-01-17T02:39:16.450Z,5.199
2023-01-17T02:40:16.418Z,3.900
2023-01-17T02:41:16.645Z,4.599
2023-01-17T02:42:16.588Z,4.300
2023-01-17T02:43:16.739Z,4
2023-01-17T02:44:16.837Z,4.800
2023-01-17T02:45:16.620Z,4.099
2023-01-17T02:46:16.889Z,3.299
2023-01-17T02:47:16.817Z,3.599
2023-01-17T02:48:16.566Z,3.400
2023-01-17T02:49:16.673Z,3.900
2023-01-17T02:50:17.000Z,5.300
2023-01-17T02:51:16.967Z,5.400
2023-01-17T02:52:16.623Z,4.900
2023-01-17T02:53:16.570Z,3.200
2023-01-17T02:54:16.661Z,4.699
2023-01-17T02:55:16.957Z,3.799
2023-01-17T02:56:16.488Z,3.700
2023-01-17T02:57:16.385Z,3.799
2023-01-17T02:58:16.453Z,3.400
2023-01-17T02:59:16.351Z,3.900
2023-01-17T03:00:17.190Z,5.099
2023-01-17T03:01:16.708Z,3.599
2023-01-17T03:02:16.698Z,2.799
2023-01-17T03:03:16.630Z,4.800
2023-01-17T03:04:16.261Z,5.699
2023-01-17T03:05:16.465Z,3
2023-01-17T03:06:16.042Z,3.599
2023-01-17T03:07:16.908Z,3.200
2023-01-17T03:08:16.709Z,4.5
2023-01-17T03:09:16.696Z,2.5
2023-01-17T03:10:16.404Z,3.799
2023-01-17T03:11:16.899Z,4
2023-01-17T03:12:16.687Z,5.400
2023-01-17T03:13:16.504Z,3.700
2023-01-17T03:14:16.186Z,6.300
2023-01-17T03:15:16.492Z,4
2023-01-17T03:16:16.415Z,3.200
2023-01-17T03:17:16.705Z,5.5
2023-01-17T03:18:16.535Z,5.099
2023-01-17T03:19:16.550Z,5.300
2023-01-17T03:20:16.672Z,3.900
2023-01-17T03:21:16.742Z,3.099
2023-01-17T03:22:16.837Z,3.900
2023-01-17T03:23:16.986Z,5.099
2023-01-17T03:24:16.611Z,5.599
2023-01-17T03:25:16.897Z,3.5
2023-01-17T03:26:16.803Z,3.900
2023-01-17T03:27:16.663Z,2.700
2023-01-17T03:28:16.577Z,4.400
2023-01-17T03:29:16.607Z,3.099
2023-01-17T03:30:16.818Z,3.799
2023-01-17T03:31:16.415Z,4.300
2023-01-17T03:32:16.465Z,3.900
2023-01-17T03:34:16.682Z,3.400
2023-01-17T03:35:17.027Z,5.400
2023-01-17T03:36:16.349Z,4.099
2023-01-17T03:37:16.361Z,3.799
2023-01-17T03:38:16.397Z,5.199
2023-01-17T03:39:16.766Z,3.599
2023-01-17T03:40:16.843Z,4.5
2023-01-17T03:41:16.743Z,4.099
2023-01-17T03:42:16.704Z,4.300
2023-01-17T03:43:16.988Z,3.599
2023-01-17T03:44:16.841Z,5.199
2023-01-17T03:45:17.085Z,4
2023-01-17T03:46:16.801Z,3.900
2023-01-17T03:47:16.624Z,6.599
2023-01-17T03:48:16.610Z,4.400
2023-01-17T03:49:16.830Z,5.199
2023-01-17T03:50:16.795Z,3.099
2023-01-17T03:51:16.935Z,4.800
2023-01-17T03:52:16.938Z,3.400
2023-01-17T03:54:16.832Z,4.099
2023-01-17T03:55:17.066Z,3.599
2023-01-17T03:56:16.669Z,4
2023-01-17T03:57:16.685Z,4.400
2023-01-17T03:58:16.627Z,5.099
2023-01-17T03:59:16.868Z,5.699
2023-01-17T04:00:17.744Z,3.900
2023-01-17T04:01:17.131Z,4.099
2023-01-17T04:03:16.706Z,4.400
2023-01-17T04:04:16.869Z,4.900
2023-01-17T04:05:17.068Z,4.099
2023-01-17T04:06:16.543Z,5.099
2023-01-17T04:07:16.688Z,5.800
2023-01-17T04:08:17.106Z,5
2023-01-17T04:09:16.767Z,5.099
2023-01-17T04:10:16.820Z,5.699
2023-01-17T04:11:17.138Z,6.900
2023-01-17T04:12:17.150Z,4.5
2023-01-17T04:13:17.057Z,4.900
2023-01-17T04:14:16.992Z,4.5
2023-01-17T04:15:17.319Z,3.900
2023-01-17T04:16:17.063Z,4.5
2023-01-17T04:17:16.903Z,3.799
2023-01-17T04:18:17.056Z,4.199
2023-01-17T04:19:17.071Z,6.199
2023-01-17T04:20:17.073Z,5.900
2023-01-17T04:21:16.950Z,4.099
2023-01-17T04:22:17.140Z,4.300
2023-01-17T04:23:17.176Z,4.800
2023-01-17T04:24:18.014Z,3.900
2023-01-17T04:25:16.536Z,4.099
2023-01-17T04:26:16.689Z,4.599
2023-01-17T04:28:16.695Z,3.900
2023-01-17T04:31:16.570Z,5.199
2023-01-17T04:32:16.758Z,3.700
2023-01-17T04:33:16.870Z,5.400
2023-01-17T04:34:17.255Z,3.400
2023-01-17T04:35:16.883Z,4.199
2023-01-17T04:36:17.102Z,4.800
2023-01-17T04:37:16.839Z,3
2023-01-17T04:38:16.693Z,3.400
2023-01-17T04:40:16.673Z,3.799
2023-01-17T04:41:17.011Z,4.300
2023-01-17T04:42:16.847Z,3.599
2023-01-17T04:44:16.760Z,3.5
2023-01-17T04:45:16.862Z,3.400
2023-01-17T04:46:17.145Z,3.900
2023-01-17T04:47:16.713Z,4.300
2023-01-17T04:49:16.705Z,3.599
2023-01-17T04:50:16.660Z,4.400
2023-01-17T04:51:16.660Z,4.900
2023-01-17T04:52:16.991Z,5.199
2023-01-17T04:53:16.364Z,4.300
2023-01-17T04:54:16.559Z,3.700
2023-01-17T04:55:16.935Z,3.599
2023-01-17T04:56:16.745Z,4.400
2023-01-17T04:57:16.906Z,4.599
2023-01-17T04:58:16.815Z,4.5
2023-01-17T04:59:16.939Z,4.300
2023-01-17T05:00:17.523Z,4.900
2023-01-17T05:01:17.088Z,4.400
2023-01-17T05:02:16.911Z,5.400
2023-01-17T05:03:16.975Z,4.300
2023-01-17T05:04:16.968Z,4.5
2023-01-17T05:05:16.535Z,4.199
2023-01-17T05:06:16.632Z,3.700
2023-01-17T05:07:16.571Z,4.5
2023-01-17T05:08:16.571Z,4.900
2023-01-17T05:09:16.895Z,3.900
2023-01-17T05:10:17.182Z,2.900
2023-01-17T05:11:16.567Z,3.900
2023-01-17T05:12:16.475Z,4
2023-01-17T05:13:16.940Z,4.199
2023-01-17T05:14:16.937Z,4.599
2023-01-17T05:15:17.419Z,3.799
2023-01-17T05:17:16.629Z,3.900
2023-01-17T05:18:16.952Z,5.699
2023-01-17T05:19:17.108Z,3.799
2023-01-17T05:20:16.587Z,4.699
2023-01-17T05:22:16.734Z,4.199
2023-01-17T05:23:16.649Z,4.900
2023-01-17T05:24:16.634Z,5.699
2023-01-17T05:25:16.840Z,4.400
2023-01-17T05:26:16.973Z,3.700
2023-01-17T05:27:16.752Z,4.900
2023-01-17T05:28:16.854Z,4.5
2023-01-17T05:29:17.008Z,4.400
2023-01-17T05:30:17.022Z,4.300
2023-01-17T05:31:16.797Z,4.900
2023-01-17T05:32:17.289Z,4.5
2023-01-17T05:33:17.417Z,4.400
2023-01-17T05:34:16.676Z,4.099
2023-01-17T05:35:16.890Z,3.700
2023-01-17T05:36:17.191Z,5.400
2023-01-17T05:37:16.179Z,4.599
2023-01-17T05:38:16.580Z,3.900
2023-01-17T05:39:17.000Z,3.5
2023-01-17T05:40:17.230Z,3.900
2023-01-17T05:41:16.672Z,3.700
2023-01-17T05:42:16.853Z,4.699
2023-01-17T05:43:17.073Z,4.300
2023-01-17T05:45:17.379Z,3.900
2023-01-17T05:46:16.929Z,4.400
2023-01-17T05:47:17.092Z,4.900
2023-01-17T05:48:16.700Z,3.599
2023-01-17T05:49:17.014Z,4.300
2023-01-17T05:50:16.724Z,3.799
2023-01-17T05:51:17.061Z,4.599
2023-01-17T05:52:16.491Z,3.299
2023-01-17T05:53:16.949Z,4
2023-01-17T05:55:16.703Z,4.5
2023-01-17T05:56:17.025Z,4.800
2023-01-17T05:57:30.851Z,4.300
2023-01-17T05:58:17.355Z,3.900
2023-01-17T05:59:20.572Z,4.400
2023-01-17T06:00:17.570Z,4.900
2023-01-17T06:01:17.285Z,5.5
2023-01-17T06:02:16.687Z,4.800
2023-01-17T06:04:16.590Z,4.300
2023-01-17T06:05:17.583Z,4
2023-01-17T06:06:16.923Z,3.900
2023-01-17T06:07:17.094Z,3.700
2023-01-17T06:08:17.131Z,4.199
2023-01-17T06:09:16.917Z,4.400
2023-01-17T06:10:17.145Z,5
2023-01-17T06:11:16.782Z,5.099
2023-01-17T06:12:17.279Z,3.900
2023-01-17T06:13:16.999Z,4.699
2023-01-17T06:14:16.217Z,5.300
2023-01-17T06:15:17.173Z,3.900
2023-01-17T06:16:16.631Z,3.700
2023-01-17T06:17:17.192Z,4.199
2023-01-17T06:18:16.745Z,5.300
2023-01-17T06:19:17.110Z,5.900
2023-01-17T06:20:17.104Z,4
2023-01-17T06:21:16.625Z,5
2023-01-17T06:22:16.890Z,4.5
2023-01-17T06:23:16.702Z,5.599
2023-01-17T06:24:16.881Z,4.5
2023-01-17T06:25:16.892Z,4.599
2023-01-17T06:26:16.970Z,5.199
2023-01-17T06:27:16.833Z,4.900
2023-01-17T06:28:17.010Z,5.300
2023-01-17T06:29:16.537Z,3.400
2023-01-17T06:30:17.125Z,4
2023-01-17T06:31:16.794Z,4.599
2023-01-17T06:32:16.915Z,4.400
2023-01-17T06:34:16.932Z,3.900
2023-01-17T06:35:16.796Z,4.599
2023-01-17T06:36:16.938Z,5
2023-01-17T06:37:16.855Z,4.800
2023-01-17T06:38:16.626Z,4.400
2023-01-17T06:39:17.267Z,5.099
2023-01-17T06:40:16.716Z,5.400
2023-01-17T06:41:16.893Z,3.5
2023-01-17T06:42:16.983Z,4.300
2023-01-17T06:43:16.318Z,5.5
2023-01-17T06:44:16.727Z,5.400
2023-01-17T06:45:17.203Z,4.300
2023-01-17T06:46:16.931Z,5.300
2023-01-17T06:47:16.736Z,4.800
2023-01-17T06:48:16.899Z,5.199
2023-01-17T06:49:16.841Z,4.800
2023-01-17T06:50:17.263Z,6.300
2023-01-17T06:51:16.759Z,5.900
2023-01-17T06:52:16.733Z,5.699
2023-01-17T06:53:17.135Z,5.300
2023-01-17T06:54:16.875Z,5.800
2023-01-17T06:55:17.517Z,5
2023-01-17T06:56:17.117Z,5.599
2023-01-17T06:57:17.457Z,5.800
2023-01-17T06:58:16.938Z,5.099
2023-01-17T06:59:16.984Z,6.400
2023-01-17T07:00:18.127Z,4.599
2023-01-17T07:01:16.954Z,5
2023-01-17T07:04:16.929Z,5.400
2023-01-17T07:05:16.951Z,4.800
2023-01-17T07:06:16.584Z,5.400
2023-01-17T07:08:17.201Z,4.699
2023-01-17T07:09:17.200Z,4.400
2023-01-17T07:10:16.875Z,4.5
2023-01-17T07:11:16.699Z,5
2023-01-17T07:13:16.771Z,5.099
2023-01-17T07:14:16.967Z,4.400
2023-01-17T07:15:17.017Z,4
2023-01-17T07:16:17.093Z,4.900
2023-01-17T07:17:16.947Z,5.099
2023-01-17T07:18:16.760Z,4.599
2023-01-17T07:19:16.830Z,4.400
2023-01-17T07:20:17.126Z,3.900
2023-01-17T07:21:17.042Z,4.400
2023-01-17T07:22:16.890Z,4.699
2023-01-17T07:23:16.922Z,3.700
2023-01-17T07:24:16.791Z,4.800
2023-01-17T07:25:17.202Z,5
2023-01-17T07:26:16.591Z,4.699
2023-01-17T07:27:17.113Z,4
2023-01-17T07:28:16.784Z,5.099
2023-01-17T07:29:16.855Z,4.699
2023-01-17T07:30:16.818Z,5.400
2023-01-17T07:31:16.793Z,5
2023-01-17T07:32:17.175Z,4.699
2023-01-17T07:33:16.967Z,5.800
2023-01-17T07:34:17.130Z,5.5
2023-01-17T07:35:16.813Z,5.199
2023-01-17T07:36:17.231Z,5
2023-01-17T07:37:16.908Z,4.099
2023-01-17T07:38:16.609Z,6.300
2023-01-17T07:39:17.136Z,4.599
2023-01-17T07:40:17.205Z,5.599
2023-01-17T07:41:16.932Z,4.900
2023-01-17T07:42:17.036Z,5.300
2023-01-17T07:43:16.837Z,7
2023-01-17T07:44:17.219Z,4.699
2023-01-17T07:45:17.115Z,5.300
2023-01-17T07:46:17.072Z,5.900
2023-01-17T07:47:16.947Z,6.099
2023-01-17T07:48:17.022Z,5.300
2023-01-17T07:50:17.349Z,5.599
2023-01-17T07:51:17.215Z,5
2023-01-17T07:52:18.298Z,5.199
2023-01-17T07:53:17.365Z,5.400
2023-01-17T07:54:17.241Z,4.599
2023-01-17T07:55:17.131Z,4.5
2023-01-17T07:56:16.912Z,5.300
2023-01-17T07:57:17.128Z,4.800
2023-01-17T07:58:17.260Z,5.900
2023-01-17T07:59:17.109Z,4.5
2023-01-17T08:00:17.753Z,5.699
2023-01-17T08:01:17.671Z,5.599
2023-01-17T08:02:21.949Z,4.5
2023-01-17T08:03:17.381Z,5.699
2023-01-17T08:04:17.836Z,6.599
2023-01-17T08:05:17.082Z,6.400
2023-01-17T08:06:17.180Z,6.900
2023-01-17T08:07:17.217Z,5.900
2023-01-17T08:08:17.831Z,6.5
2023-01-17T08:09:17.071Z,5.800
2023-01-17T08:11:17.128Z,6.5
2023-01-17T08:12:16.845Z,6.199
2023-01-17T08:13:16.878Z,6.099
2023-01-17T08:14:17.424Z,5.099
2023-01-17T08:15:16.844Z,5.800
2023-01-17T08:16:16.667Z,5.300
2023-01-17T08:18:17.147Z,6
2023-01-17T08:19:16.694Z,5.300
2023-01-17T08:20:17.134Z,5.099
2023-01-17T08:21:16.583Z,5.5
2023-01-17T08:22:17.374Z,5.099
2023-01-17T08:23:16.909Z,5.599
2023-01-17T08:24:16.802Z,4.099
2023-01-17T08:25:17.318Z,5.300
2023-01-17T08:26:16.878Z,4.800
2023-01-17T08:27:17.195Z,6.5
2023-01-17T08:28:16.855Z,4.699
2023-01-17T08:29:16.687Z,4.900
2023-01-17T08:30:17.228Z,4.800
2023-01-17T08:32:17.036Z,5
2023-01-17T08:33:16.794Z,5.599
2023-01-17T08:34:17.363Z,4.800
2023-01-17T08:35:17.266Z,4.599
2023-01-17T08:36:16.985Z,5.5
2023-01-17T08:37:16.784Z,5
2023-01-17T08:38:16.707Z,3.700
2023-01-17T08:39:17.035Z,5.099
2023-01-17T08:40:17.037Z,4.900
2023-01-17T08:41:16.826Z,4.099
2023-01-17T08:42:17.144Z,5.300
2023-01-17T08:43:16.673Z,4.800
2023-01-17T08:44:17.114Z,5
2023-01-17T08:45:17.003Z,5.5
2023-01-17T08:46:17.365Z,4.599
2023-01-17T08:47:17.002Z,4.800
2023-01-17T08:48:17.183Z,4.400
2023-01-17T08:50:16.802Z,5
2023-01-17T08:51:17.097Z,3.599
2023-01-17T08:52:16.902Z,5.199
2023-01-17T08:53:16.896Z,4.800
2023-01-17T08:54:16.743Z,5.199
2023-01-17T08:55:16.790Z,3.799
2023-01-17T08:56:16.932Z,4.900
2023-01-17T08:57:16.821Z,4.699
2023-01-17T08:58:17.213Z,4.5
2023-01-17T08:59:17.529Z,4.699
2023-01-17T09:00:17.585Z,4.199
2023-01-17T09:01:16.726Z,4.5
2023-01-17T09:02:16.899Z,4.900
2023-01-17T09:03:16.959Z,4.5
2023-01-17T09:04:16.723Z,5.300
2023-01-17T09:05:17.380Z,4
2023-01-17T09:06:16.855Z,4.699
2023-01-17T09:07:17.034Z,4.800
2023-01-17T09:08:17.173Z,4.699
2023-01-17T09:09:17.074Z,6.400
2023-01-17T09:10:17.107Z,6
2023-01-17T09:11:16.826Z,4.199
2023-01-17T09:12:17.268Z,5
2023-01-17T09:13:16.737Z,4.400
2023-01-17T09:14:17.065Z,4.699
2023-01-17T09:15:16.968Z,6.099
2023-01-17T09:16:16.817Z,5.099
2023-01-17T09:17:16.638Z,4.300
2023-01-17T09:18:17.151Z,4.199
2023-01-17T09:19:16.759Z,3.400
2023-01-17T09:20:17.287Z,4.800
2023-01-17T09:21:16.878Z,4.5
2023-01-17T09:22:17.064Z,5.699
2023-01-17T09:23:16.817Z,5.199
2023-01-17T09:24:17.204Z,3.599
2023-01-17T09:25:16.830Z,4.300
2023-01-17T09:26:16.619Z,4
2023-01-17T09:27:17.265Z,5.199
2023-01-17T09:28:17.035Z,4.199
2023-01-17T09:29:16.860Z,5.400
2023-01-17T09:30:17.320Z,4.400
2023-01-17T09:31:17.887Z,4.599
2023-01-17T09:32:17.391Z,4.099
2023-01-17T09:33:17.717Z,3.900
2023-01-17T09:34:17.636Z,5.199
2023-01-17T09:35:17.092Z,4.400
2023-01-17T09:36:17.718Z,4.300
2023-01-17T09:38:17.584Z,5
2023-01-17T09:39:17.575Z,4.900
2023-01-17T09:40:18.158Z,5.300
2023-01-17T09:41:16.968Z,6.400
2023-01-17T09:42:17.135Z,5.5
2023-01-17T09:43:17.290Z,6.900
2023-01-17T09:44:16.759Z,5.800
2023-01-17T09:45:17.437Z,5.400
2023-01-17T09:46:17.027Z,6.5
2023-01-17T09:47:17.165Z,4.900
2023-01-17T09:48:16.626Z,5.5
2023-01-17T09:49:17.193Z,4.800
2023-01-17T09:52:16.918Z,4.599
2023-01-17T09:53:16.917Z,3.799
2023-01-17T09:54:17.300Z,4
2023-01-17T09:55:17.065Z,3.799
2023-01-17T09:56:17.117Z,4.900
2023-01-17T09:57:16.919Z,4.099
2023-01-17T09:58:16.828Z,3.799
2023-01-17T09:59:19.057Z,3.900
2023-01-17T10:00:17.954Z,3.599
2023-01-17T10:01:17.087Z,3.200
2023-01-17T10:02:17.487Z,4
2023-01-17T10:03:17.034Z,3.5
2023-01-17T10:04:17.149Z,4.099
2023-01-17T10:05:17.152Z,3.400
2023-01-17T10:06:16.977Z,4
2023-01-17T10:07:16.904Z,3.299
2023-01-17T10:08:17.041Z,3.799
2023-01-17T10:09:16.856Z,3.5
2023-01-17T10:10:17.376Z,4.800
2023-01-17T10:11:17.165Z,4.300
2023-01-17T10:12:17.039Z,3
2023-01-17T10:13:16.894Z,3.299
2023-01-17T10:14:16.168Z,3.599
2023-01-17T10:15:17.263Z,3.5
2023-01-17T10:16:17.011Z,3.599
2023-01-17T10:17:16.712Z,4.599
2023-01-17T10:18:29.277Z,3.900
2023-01-17T10:19:16.937Z,3.700
2023-01-17T10:20:17.500Z,2.599
2023-01-17T10:21:17.240Z,4
2023-01-17T10:22:17.085Z,3.900
2023-01-17T10:23:17.137Z,4.099
2023-01-17T10:24:17.389Z,5.400
2023-01-17T10:25:17.668Z,3.599
2023-01-17T10:26:17.412Z,2.700
2023-01-17T10:27:17.670Z,2.900
2023-01-17T10:28:17.704Z,3.5
2023-01-17T10:29:19.486Z,3.299
2023-01-17T10:30:17.186Z,3.700
2023-01-17T10:31:16.843Z,3.200
2023-01-17T10:32:17.123Z,3.599
2023-01-17T10:33:16.927Z,2.700
2023-01-17T10:34:16.602Z,3.400
2023-01-17T10:35:17.172Z,3.200
2023-01-17T10:36:16.946Z,3.099
2023-01-17T10:37:16.926Z,4.099
2023-01-17T10:38:16.916Z,3.299
2023-01-17T10:39:17.308Z,3.200
2023-01-17T10:40:16.941Z,3.299
2023-01-17T10:41:17.425Z,3.700
2023-01-17T10:42:17.523Z,4.599
2023-01-17T10:43:18.229Z,3.5
2023-01-17T10:45:16.990Z,3
2023-01-17T10:46:17.470Z,3.900
2023-01-17T10:47:17.343Z,3.599
2023-01-17T10:48:17.136Z,3.099
2023-01-17T10:49:16.861Z,3.5
2023-01-17T10:50:17.428Z,3.599
2023-01-17T10:52:17.295Z,2.700
2023-01-17T10:53:17.743Z,3.099
2023-01-17T10:54:17.513Z,2.400
2023-01-17T10:55:17.569Z,3.200
2023-01-17T10:56:17.615Z,3.299
2023-01-17T10:57:17.153Z,3.700
2023-01-17T10:58:16.808Z,3.200
2023-01-17T11:00:17.846Z,2.900
2023-01-17T11:01:17.954Z,3
2023-01-17T11:02:17.336Z,2.599
2023-01-17T11:03:17.207Z,3.200
2023-01-17T11:05:17.184Z,3.400
2023-01-17T11:06:16.896Z,3.900
2023-01-17T11:07:17.057Z,3.299
2023-01-17T11:08:17.154Z,3.400
2023-01-17T11:09:17.512Z,3.099
2023-01-17T11:10:17.226Z,3.400
2023-01-17T11:11:17.311Z,3.200
2023-01-17T11:12:16.682Z,2.599
2023-01-17T11:13:17.436Z,3.5
2023-01-17T11:14:17.255Z,2.700
2023-01-17T11:15:17.341Z,3.099
2023-01-17T11:16:17.222Z,3.200
2023-01-17T11:17:17.537Z,3.599
2023-01-17T11:18:17.390Z,2.5
2023-01-17T11:19:17.693Z,2.900
2023-01-17T11:20:17.432Z,4.099
2023-01-17T11:21:17.776Z,3
2023-01-17T11:22:17.577Z,4.099
2023-01-17T11:23:17.439Z,5.099
2023-01-17T11:24:17.252Z,4.099
2023-01-17T11:25:17.174Z,5.199
2023-01-17T11:26:17.048Z,4.5
2023-01-17T11:27:17.276Z,4.900
2023-01-17T11:28:17.124Z,5.900
2023-01-17T11:29:17.007Z,4.599
2023-01-17T11:30:17.060Z,5.300
2023-01-17T11:31:17.169Z,4.599
2023-01-17T11:32:17.178Z,5.300
2023-01-17T11:33:17.351Z,5.800
2023-01-17T11:34:17.288Z,4.099
2023-01-17T11:35:17.340Z,3.900
2023-01-17T11:36:17.040Z,3.799
2023-01-17T11:37:17.000Z,4.599
2023-01-17T11:38:16.775Z,5.099
2023-01-17T11:39:17.730Z,4.199
2023-01-17T11:41:17.012Z,4.099
2023-01-17T11:42:16.961Z,4
2023-01-17T11:44:17.284Z,3.599
2023-01-17T11:46:16.754Z,4
2023-01-17T11:47:16.703Z,4.599
2023-01-17T11:48:17.145Z,3.799
2023-01-17T11:49:17.011Z,5.5
2023-01-17T11:50:17.235Z,4.800
2023-01-17T11:51:17.476Z,5.400
2023-01-17T11:52:16.965Z,4.300
2023-01-17T11:53:16.922Z,5.400
2023-01-17T11:54:17.252Z,4.199
2023-01-17T11:55:17.294Z,4.400
2023-01-17T11:56:17.124Z,5.599
2023-01-17T11:57:16.975Z,5
2023-01-17T11:58:17.215Z,4.5
2023-01-17T11:59:17.243Z,6.5
2023-01-17T12:00:17.696Z,3.900
2023-01-17T12:01:17.330Z,4.099
2023-01-17T12:02:17.262Z,5.199
2023-01-17T12:03:16.889Z,5.300
2023-01-17T12:04:16.985Z,5.099
2023-01-17T12:05:17.307Z,3.900
2023-01-17T12:06:17.106Z,5
2023-01-17T12:07:16.692Z,5.099
2023-01-17T12:08:17.894Z,5.400
2023-01-17T12:09:17.117Z,4.5
2023-01-17T12:10:17.244Z,4.199
2023-01-17T12:11:17.247Z,5.300
2023-01-17T12:12:17.096Z,4.599
2023-01-17T12:13:17.098Z,4.699
2023-01-17T12:14:17.274Z,4.300
2023-01-17T12:15:17.244Z,4.400
2023-01-17T12:16:17.255Z,4.199
2023-01-17T12:17:17.335Z,4.400
2023-01-17T12:19:17.047Z,5.5
2023-01-17T12:21:17.107Z,7
2023-01-17T12:22:17.166Z,7.099
2023-01-17T12:23:16.959Z,5.699
2023-01-17T12:24:17.114Z,6.400
2023-01-17T12:25:17.299Z,5.400
2023-01-17T12:26:17.263Z,4.300
2023-01-17T12:27:17.408Z,6.599
2023-01-17T12:28:17.350Z,6.300
2023-01-17T12:29:17.254Z,5
2023-01-17T12:30:17.469Z,5.5
2023-01-17T12:31:16.914Z,4.599
2023-01-17T12:32:16.889Z,6.900
2023-01-17T12:33:16.914Z,4.900
2023-01-17T12:34:17.389Z,4.599
2023-01-17T12:35:17.566Z,5
2023-01-17T12:36:17.569Z,6.699
2023-01-17T12:37:17.483Z,5.5
2023-01-17T12:38:31.306Z,4.300
2023-01-17T12:39:17.509Z,4.099
2023-01-17T12:40:17.406Z,3.700
2023-01-17T12:41:17.630Z,4.5
2023-01-17T12:42:16.217Z,3.700
2023-01-17T12:43:16.812Z,5.099
2023-01-17T12:44:16.934Z,3.599
2023-01-17T12:45:17.331Z,4.599
2023-01-17T12:46:17.279Z,3.700
2023-01-17T12:47:17.273Z,4
2023-01-17T12:48:17.405Z,4.400
2023-01-17T12:49:17.408Z,3.599
2023-01-17T12:50:17.331Z,4.099
2023-01-17T12:51:17.135Z,4.400
2023-01-17T12:52:17.477Z,2.599
2023-01-17T12:53:17.316Z,3.700
2023-01-17T12:55:17.312Z,3.200
2023-01-17T12:56:17.372Z,4
2023-01-17T12:57:17.227Z,3.200
2023-01-17T12:58:17.149Z,3.900
2023-01-17T12:59:16.847Z,3.799
2023-01-17T13:00:17.224Z,4.199
2023-01-17T13:02:24.797Z,4.300
2023-01-17T13:03:16.832Z,3.799
2023-01-17T13:04:16.828Z,2
2023-01-17T13:05:17.002Z,3.599
2023-01-17T13:06:16.785Z,3
2023-01-17T13:07:17.164Z,2.900
2023-01-17T13:08:17.046Z,5.099
2023-01-17T13:09:17.103Z,6.800
2023-01-17T13:10:17.067Z,4.699
2023-01-17T13:11:17.173Z,5.300
2023-01-17T13:12:16.979Z,5.900
2023-01-17T13:13:16.749Z,4.199
2023-01-17T13:14:16.452Z,5.599
2023-01-17T13:15:17.073Z,3.700
2023-01-17T13:16:30.967Z,4.5
2023-01-17T13:17:16.908Z,3.400
2023-01-17T13:18:17.196Z,3.900
2023-01-17T13:19:16.888Z,3.299
2023-01-17T13:22:17.001Z,4.300
2023-01-17T13:23:17.063Z,3.700
2023-01-17T13:24:16.892Z,3.200
2023-01-17T13:25:17.301Z,3
2023-01-17T13:26:17.260Z,2.799
2023-01-17T13:27:17.384Z,3.700
2023-01-17T13:28:17.060Z,4.599
2023-01-17T13:29:16.898Z,5.5
2023-01-17T13:30:16.866Z,5
2023-01-17T13:31:17.097Z,3
2023-01-17T13:32:36.265Z,3.799
2023-01-17T13:33:16.993Z,2.900
2023-01-17T13:34:16.998Z,3.700
2023-01-17T13:35:17.210Z,3.099
2023-01-17T13:36:17.103Z,2.700
2023-01-17T13:37:17.179Z,3.400
2023-01-17T13:38:16.983Z,2.5
2023-01-17T13:39:17.087Z,3.900
2023-01-17T13:40:17.437Z,2.599
2023-01-17T13:41:17.704Z,3.400
2023-01-17T13:42:17.652Z,3.299
2023-01-17T13:43:17.690Z,3.200
2023-01-17T13:44:17.567Z,3.400
2023-01-17T13:45:17.997Z,4.099
2023-01-17T13:47:17.735Z,3.5
2023-01-17T13:48:17.415Z,2.599
2023-01-17T13:49:17.332Z,3
2023-01-17T13:50:17.093Z,4.099
2023-01-17T13:51:17.131Z,3.299
2023-01-17T13:52:16.887Z,2.599
2023-01-17T13:53:17.215Z,2.900